createdAt,value
2019-01-19T00:00:30.657Z,95059.61
2019-01-19T00:03:50.554Z,95066.02
2019-01-19T00:07:06.165Z,95061.66
2019-01-19T00:10:20.592Z,95060.45
2019-01-19T00:13:35.134Z,95055.87
2019-01-19T00:17:09.675Z,95058.57
2019-01-19T00:20:19.754Z,95045.10
2019-01-19T00:23:39.520Z,95042.77
2019-01-19T00:26:53.424Z,95044.09
2019-01-19T00:30:42.123Z,95036.64
2019-01-19T00:34:01.691Z,95030.50
2019-01-19T00:37:09.927Z,95025.42
2019-01-19T00:40:55.621Z,95012.75
2019-01-19T00:44:09.288Z,95013.63
2019-01-19T00:47:50.644Z,95022.84
2019-01-19T00:51:17.820Z,95017.48
2019-01-19T00:54:28.023Z,95017.91
2019-01-19T00:57:42.524Z,95016.31
2019-01-19T01:00:27.914Z,95006.90
2019-01-19T01:03:22.687Z,95010.16
2019-01-19T01:06:35.653Z,95014.73
2019-01-19T01:10:24.426Z,95011.64
2019-01-19T01:14:17.987Z,95015.35
2019-01-19T01:17:20.629Z,95018.96
2019-01-19T01:21:03.646Z,95015.81
2019-01-19T01:24:09.622Z,95015.87
2019-01-19T01:27:36.825Z,95003.08
2019-01-19T01:30:48.606Z,95010.63
2019-01-19T01:34:13.025Z,95018.14
2019-01-19T01:37:33.855Z,95019.50
2019-01-19T01:41:07.648Z,95019.25
2019-01-19T01:44:41.644Z,95020.12
2019-01-19T01:48:10.543Z,95016.97
2019-01-19T01:51:28.931Z,95021.03
2019-01-19T01:55:16.484Z,95015.95
2019-01-19T01:58:43.748Z,95018.47
2019-01-19T02:01:51.453Z,95020.70
2019-01-19T02:05:40.428Z,95022.34
2019-01-19T02:09:11.046Z,95011.84
2019-01-19T02:12:41.990Z,95015.09
2019-01-19T02:16:26.687Z,95008.14
2019-01-19T02:19:46.352Z,95005.04
2019-01-19T02:23:26.476Z,94999.21
2019-01-19T02:27:06.954Z,94998.72
2019-01-19T02:30:45.754Z,94991.33
2019-01-19T02:33:57.002Z,94989.91
2019-01-19T02:37:21.854Z,94998.09
2019-01-19T02:41:00.815Z,94999.42
2019-01-19T02:44:21.368Z,94997.33
2019-01-19T02:47:58.187Z,94990.56
2019-01-19T02:51:07.763Z,94983.80
2019-01-19T02:54:27.480Z,94974.70
2019-01-19T02:58:06.436Z,94975.94
2019-01-19T03:01:21.648Z,94963.59
2019-01-19T03:04:37.333Z,94966.19
2019-01-19T03:07:59.289Z,94963.70
2019-01-19T03:11:59.088Z,94961.95
2019-01-19T03:21:58.532Z,94965.72
2019-01-19T03:25:12.682Z,94966.03
2019-01-19T03:28:34.925Z,94966.38
2019-01-19T03:32:05.570Z,94964.83
2019-01-19T03:35:28.425Z,94973.98
2019-01-19T03:38:58.611Z,94963.33
2019-01-19T03:42:28.610Z,94963.36
2019-01-19T03:45:32.613Z,94960.08
2019-01-19T03:48:43.253Z,94954.39
2019-01-19T03:51:36.109Z,94952.23
2019-01-19T03:54:28.908Z,94955.48
2019-01-19T03:57:39.804Z,94947.55
2019-01-19T04:00:42.353Z,94945.56
2019-01-19T04:04:09.957Z,94944.50
2019-01-19T04:07:19.677Z,94949.36
2019-01-19T04:10:42.588Z,94952.09
2019-01-19T04:14:08.679Z,94945.66
2019-01-19T04:17:39.116Z,94946.50
2019-01-19T04:21:25.694Z,94942.34
2019-01-19T04:24:08.802Z,94941.72
2019-01-19T04:26:45.362Z,94943.30
2019-01-19T04:29:18.106Z,94935.08
2019-01-19T04:31:50.766Z,94940.17
2019-01-19T04:34:24.386Z,94937.39
2019-01-19T04:36:57.329Z,94928.06
2019-01-19T04:39:30.066Z,94928.31
2019-01-19T04:42:03.444Z,94932.61
2019-01-19T04:44:36.279Z,94927.02
2019-01-19T04:47:08.975Z,94935.02
2019-01-19T04:49:41.747Z,94942.34
2019-01-19T04:52:14.433Z,94935.05
2019-01-19T04:54:48.448Z,94934.00
2019-01-19T04:57:21.443Z,94926.89
2019-01-19T04:59:54.088Z,94939.11
2019-01-19T05:02:26.797Z,94934.52
2019-01-19T05:04:59.465Z,94935.48
2019-01-19T05:07:32.135Z,94930.31
2019-01-19T05:10:05.731Z,94930.72
2019-01-19T05:12:38.575Z,94926.83
2019-01-19T05:15:16.736Z,94927.65
2019-01-19T05:17:49.386Z,94927.45
2019-01-19T05:20:22.174Z,94925.93
2019-01-19T05:22:54.811Z,94936.16
2019-01-19T05:25:27.539Z,94933.58
2019-01-19T05:28:00.165Z,94928.98
2019-01-19T05:30:33.224Z,94924.13
2019-01-19T05:33:05.859Z,94917.19
2019-01-19T05:35:38.661Z,94919.87
2019-01-19T05:38:11.406Z,94918.88
2019-01-19T05:40:44.167Z,94921.51
2019-01-19T05:43:16.784Z,94914.02
2019-01-19T05:45:49.540Z,94917.19
2019-01-19T05:48:22.257Z,94919.33
2019-01-19T05:50:55.014Z,94914.69
2019-01-19T05:53:27.706Z,94915.73
2019-01-19T05:56:00.416Z,94918.78
2019-01-19T05:58:33.207Z,94923.20
2019-01-19T06:01:05.209Z,94926.82
2019-01-19T06:03:37.882Z,94919.20
2019-01-19T06:06:10.768Z,94925.23
2019-01-19T06:08:43.829Z,94922.63
2019-01-19T06:11:16.472Z,94930.19
2019-01-19T06:13:49.147Z,94924.61
2019-01-19T06:16:21.808Z,94923.82
2019-01-19T06:18:54.744Z,94927.50
2019-01-19T06:21:31.848Z,94923.84
2019-01-19T06:24:05.657Z,94924.12
2019-01-19T06:26:38.346Z,94923.34
2019-01-19T06:29:11.331Z,94917.84
2019-01-19T06:31:44.147Z,94919.80
2019-01-19T06:34:16.786Z,94914.91
2019-01-19T06:36:54.810Z,94919.66
2019-01-19T06:39:23.962Z,94918.06
2019-01-19T06:41:56.675Z,94918.51
2019-01-19T06:44:29.363Z,94920.94
2019-01-19T06:47:02.215Z,94917.84
2019-01-19T06:49:34.898Z,94917.70
2019-01-19T06:52:07.680Z,94924.78
2019-01-19T06:54:40.408Z,94924.95
2019-01-19T06:57:13.115Z,94924.30
2019-01-19T06:59:45.773Z,94922.81
2019-01-19T07:02:18.463Z,94924.56
2019-01-19T07:04:51.307Z,94920.69
2019-01-19T07:07:24.104Z,94926.80
2019-01-19T07:09:56.845Z,94924.34
2019-01-19T07:12:29.675Z,94921.06
2019-01-19T07:15:02.401Z,94926.77
2019-01-19T07:17:35.278Z,94926.23
2019-01-19T07:20:11.405Z,94925.64
2019-01-19T07:22:44.135Z,94930.41
2019-01-19T07:25:16.853Z,94938.09
2019-01-19T07:27:49.614Z,94925.64
2019-01-19T07:30:22.407Z,94931.05
2019-01-19T07:32:55.151Z,94931.67
2019-01-19T07:35:27.864Z,94928.41
2019-01-19T07:38:00.540Z,94940.84
2019-01-19T07:40:33.303Z,94941.91
2019-01-19T07:43:12.635Z,94939.70
2019-01-19T07:45:45.320Z,94947.55
2019-01-19T07:48:18.131Z,94940.48
2019-01-19T07:50:50.840Z,94939.47
2019-01-19T07:53:23.588Z,94939.95
2019-01-19T07:55:59.835Z,94948.03
2019-01-19T07:58:32.498Z,94941.85
2019-01-19T08:01:05.161Z,94946.90
2019-01-19T08:03:37.856Z,94943.50
2019-01-19T08:06:10.632Z,94944.10
2019-01-19T08:08:43.366Z,94944.08
2019-01-19T08:11:16.039Z,94943.90
2019-01-19T08:13:48.762Z,94950.85
2019-01-19T08:16:21.508Z,94940.62
2019-01-19T08:18:54.166Z,94937.27
2019-01-19T08:21:26.835Z,94940.67
2019-01-19T08:23:59.490Z,94942.97
2019-01-19T08:26:32.207Z,94951.02
2019-01-19T08:29:06.214Z,94948.88
2019-01-19T08:31:38.904Z,94936.41
2019-01-19T08:34:11.560Z,94938.64
2019-01-19T08:36:44.174Z,94940.25
2019-01-19T08:39:16.955Z,94944.59
2019-01-19T08:41:49.644Z,94946.85
2019-01-19T08:44:22.421Z,94939.77
2019-01-19T08:46:55.061Z,94952.05
2019-01-19T08:49:27.709Z,94947.45
2019-01-19T08:52:00.345Z,94940.55
2019-01-19T08:54:32.938Z,94938.45
2019-01-19T08:57:05.598Z,94933.17
2019-01-19T08:59:38.309Z,94933.83
2019-01-19T09:02:10.867Z,94930.39
2019-01-19T09:04:43.494Z,94925.27
2019-01-19T09:07:15.244Z,94925.98
2019-01-19T09:09:47.902Z,94930.59
2019-01-19T09:12:20.558Z,94928.47
2019-01-19T09:14:53.172Z,94929.84
2019-01-19T09:17:25.691Z,94932.10
2019-01-19T09:19:58.462Z,94927.50
2019-01-19T09:22:32.030Z,94931.87
2019-01-19T09:25:06.312Z,94930.41
2019-01-19T09:27:38.886Z,94931.58
2019-01-19T09:30:16.972Z,94922.88
2019-01-19T09:32:49.604Z,94928.99
2019-01-19T09:35:22.502Z,94928.45
2019-01-19T09:37:55.025Z,94937.82
2019-01-19T09:40:27.638Z,94933.28
2019-01-19T09:43:00.235Z,94945.70
2019-01-19T09:45:32.811Z,94947.05
2019-01-19T09:48:05.658Z,94934.77
2019-01-19T09:50:39.173Z,94939.15
2019-01-19T09:53:12.242Z,94933.13
2019-01-19T09:55:44.849Z,94934.99
2019-01-19T09:58:17.385Z,94935.01
2019-01-19T10:00:50.017Z,94923.83
2019-01-19T10:03:22.561Z,94926.92
2019-01-19T10:05:55.181Z,94927.02
2019-01-19T10:08:27.709Z,94930.86
2019-01-19T10:11:00.675Z,94924.47
2019-01-19T10:13:33.372Z,94926.52
2019-01-19T10:16:06.238Z,94919.95
2019-01-19T10:18:38.856Z,94918.36
2019-01-19T10:21:11.590Z,94908.50
2019-01-19T10:23:44.155Z,94907.98
2019-01-19T10:26:16.737Z,94909.93
2019-01-19T10:28:51.018Z,94911.02
2019-01-19T10:31:23.600Z,94898.91
2019-01-19T10:33:56.174Z,94896.16
2019-01-19T10:36:28.922Z,94895.16
2019-01-19T10:39:01.577Z,94895.16
2019-01-19T10:41:40.917Z,94889.55
2019-01-19T10:44:09.669Z,94887.48
2019-01-19T10:46:42.383Z,94883.98
2019-01-19T10:49:15.020Z,94883.62
2019-01-19T10:51:47.762Z,94881.19
2019-01-19T10:54:20.462Z,94874.41
2019-01-19T10:56:53.091Z,94873.80
2019-01-19T10:59:25.786Z,94869.42
2019-01-19T11:01:58.385Z,94875.00
2019-01-19T11:04:31.077Z,94865.47
2019-01-19T11:07:03.444Z,94869.06
2019-01-19T11:09:36.067Z,94864.08
2019-01-19T11:12:08.874Z,94865.10
2019-01-19T11:14:41.537Z,94855.71
2019-01-19T11:17:14.176Z,94856.00
2019-01-19T11:19:46.762Z,94852.86
2019-01-19T11:22:19.403Z,94838.91
2019-01-19T11:24:52.014Z,94838.82
2019-01-19T11:27:27.281Z,94841.67
2019-01-19T11:29:59.881Z,94840.32
2019-01-19T11:32:32.513Z,94833.98
2019-01-19T11:35:05.610Z,94823.98
2019-01-19T11:37:38.221Z,94823.52
2019-01-19T11:40:16.059Z,94818.19
2019-01-19T11:42:48.939Z,94812.80
2019-01-19T11:45:23.023Z,94811.97
2019-01-19T11:47:55.603Z,94798.95
2019-01-19T11:50:28.164Z,94803.83
2019-01-19T11:53:00.747Z,94799.91
2019-01-19T11:55:33.320Z,94798.28
2019-01-19T11:58:08.364Z,94795.05
2019-01-19T12:00:41.827Z,94792.03
2019-01-19T12:03:14.469Z,94793.14
2019-01-19T12:05:47.130Z,94782.41
2019-01-19T12:08:20.018Z,94771.52
2019-01-19T12:10:52.967Z,94771.56
2019-01-19T12:13:25.608Z,94769.33
2019-01-19T12:15:58.232Z,94768.06
2019-01-19T12:18:30.809Z,94766.94
2019-01-19T12:21:03.375Z,94759.16
2019-01-19T12:23:36.014Z,94759.70
2019-01-19T12:26:08.652Z,94753.52
2019-01-19T12:28:41.200Z,94748.83
2019-01-19T12:31:13.860Z,94742.63
2019-01-19T12:33:47.825Z,94748.78
2019-01-19T12:36:20.551Z,94741.05
2019-01-19T12:38:53.183Z,94741.61
2019-01-19T12:41:25.760Z,94740.33
2019-01-19T12:43:58.304Z,94738.77
2019-01-19T12:46:30.884Z,94732.52
2019-01-19T12:49:03.498Z,94743.08
2019-01-19T12:51:36.172Z,94728.49
2019-01-19T12:54:09.425Z,94728.06
2019-01-19T12:56:41.970Z,94727.37
2019-01-19T12:59:14.602Z,94725.25
2019-01-19T13:01:47.234Z,94716.06
2019-01-19T13:04:19.862Z,94709.12
2019-01-19T13:07:03.752Z,94708.31
2019-01-19T13:09:54.088Z,94705.04
2019-01-19T13:12:41.757Z,94698.99
2019-01-19T13:16:14.796Z,94694.13
2019-01-19T13:19:13.599Z,94685.80
2019-01-19T13:22:54.811Z,94684.80
2019-01-19T13:26:04.019Z,94682.52
2019-01-19T13:29:22.514Z,94682.22
2019-01-19T13:32:53.243Z,94672.28
2019-01-19T13:36:46.611Z,94675.20
2019-01-19T13:39:57.490Z,94667.09
2019-01-19T13:43:28.284Z,94666.28
2019-01-19T13:46:34.663Z,94669.95
2019-01-19T13:50:02.024Z,94666.34
2019-01-19T13:53:10.529Z,94666.78
2019-01-19T13:56:42.576Z,94662.17
2019-01-19T14:00:21.873Z,94662.63
2019-01-19T14:03:40.632Z,94650.98
2019-01-19T14:06:40.449Z,94656.30
2019-01-19T14:09:57.209Z,94655.20
2019-01-19T14:13:04.950Z,94654.90
2019-01-19T14:16:36.814Z,94649.16
2019-01-19T14:19:38.474Z,94635.19
2019-01-19T14:23:12.368Z,94640.27
2019-01-19T14:27:07.312Z,94643.20
2019-01-19T14:30:30.714Z,94632.91
2019-01-19T14:34:30.532Z,94635.45
2019-01-19T14:38:09.925Z,94632.38
2019-01-19T14:41:12.194Z,94637.53
2019-01-19T14:44:33.994Z,94625.99
2019-01-19T14:48:10.990Z,94626.11
2019-01-19T14:51:32.723Z,94620.87
2019-01-19T14:55:12.740Z,94618.13
2019-01-19T14:58:14.709Z,94619.59
2019-01-19T15:01:50.194Z,94624.73
2019-01-19T15:04:52.205Z,94621.67
2019-01-19T15:07:58.473Z,94623.14
2019-01-19T15:11:16.760Z,94625.53
2019-01-19T15:14:39.637Z,94630.14
2019-01-19T15:18:26.830Z,94625.20
2019-01-19T15:21:52.192Z,94618.17
2019-01-19T15:24:46.594Z,94620.41
2019-01-19T15:28:20.328Z,94618.13
2019-01-19T15:31:35.337Z,94623.84
2019-01-19T15:35:06.051Z,94623.56
2019-01-19T15:38:37.480Z,94619.37
2019-01-19T15:41:35.989Z,94620.94
2019-01-19T15:44:42.291Z,94622.39
2019-01-19T15:48:24.567Z,94631.48
2019-01-19T15:51:39.853Z,94625.91
2019-01-19T15:55:00.615Z,94619.81
2019-01-19T15:58:36.127Z,94614.00
2019-01-19T16:02:22.633Z,94620.64
2019-01-19T16:05:43.440Z,94619.88
2019-01-19T16:08:54.133Z,94617.52
2019-01-19T16:11:56.248Z,94630.14
2019-01-19T16:15:34.814Z,94629.38
2019-01-19T16:19:09.356Z,94629.63
2019-01-19T16:22:17.214Z,94621.22
2019-01-19T16:26:09.450Z,94633.75
2019-01-19T16:29:35.537Z,94632.47
2019-01-19T16:33:07.118Z,94630.96
2019-01-19T16:36:32.837Z,94636.06
2019-01-19T16:40:18.198Z,94634.23
2019-01-19T16:43:51.057Z,94636.80
2019-01-19T16:47:20.967Z,94630.83
2019-01-19T16:51:13.692Z,94631.48
2019-01-19T16:54:25.855Z,94631.70
2019-01-19T16:57:43.889Z,94633.72
2019-01-19T17:01:00.984Z,94635.91
2019-01-19T17:04:35.043Z,94622.42
2019-01-19T17:07:40.599Z,94629.81
2019-01-19T17:10:54.371Z,94624.30
2019-01-19T17:14:26.416Z,94623.95
2019-01-19T17:18:01.532Z,94629.24
2019-01-19T17:21:44.955Z,94628.34
2019-01-19T17:25:19.764Z,94625.09
2019-01-19T17:28:39.338Z,94624.05
2019-01-19T17:31:49.961Z,94623.98
2019-01-19T17:35:11.582Z,94626.41
2019-01-19T17:38:02.956Z,94628.62
2019-01-19T17:47:43.725Z,94630.70
2019-01-19T17:51:10.692Z,94626.96
2019-01-19T17:54:40.218Z,94633.27
2019-01-19T17:58:04.388Z,94627.58
2019-01-19T18:01:18.310Z,94639.38
2019-01-19T18:04:34.282Z,94626.05
2019-01-19T18:07:55.214Z,94630.04
2019-01-19T18:11:20.264Z,94631.02
2019-01-19T18:14:25.424Z,94627.09
2019-01-19T18:17:49.432Z,94624.34
2019-01-19T18:21:13.835Z,94627.95
2019-01-19T18:25:01.791Z,94628.83
2019-01-19T18:28:47.071Z,94625.08
2019-01-19T18:32:24.872Z,94631.25
2019-01-19T18:35:39.267Z,94629.03
2019-01-19T18:39:22.783Z,94624.45
2019-01-19T18:42:58.257Z,94632.38
2019-01-19T18:46:29.356Z,94631.12
2019-01-19T18:49:35.385Z,94625.23
2019-01-19T18:53:13.102Z,94625.95
2019-01-19T18:56:48.576Z,94629.13
2019-01-19T19:00:14.623Z,94637.33
2019-01-19T19:03:30.729Z,94632.33
2019-01-19T19:07:08.377Z,94627.75
2019-01-19T19:10:14.826Z,94628.64
2019-01-19T19:13:19.270Z,94623.38
2019-01-19T19:16:48.188Z,94622.72
2019-01-19T19:20:11.643Z,94626.87
2019-01-19T19:24:08.489Z,94621.75
2019-01-19T19:27:57.135Z,94623.67
2019-01-19T19:31:07.583Z,94623.57
2019-01-19T19:34:54.268Z,94622.39
2019-01-19T19:38:28.161Z,94625.37
2019-01-19T19:41:40.060Z,94626.81
2019-01-19T19:45:18.871Z,94626.81
2019-01-19T19:48:59.314Z,94623.08
2019-01-19T19:52:02.173Z,94628.30
2019-01-19T19:54:36.135Z,94627.66
2019-01-19T19:57:08.774Z,94624.12
2019-01-19T19:59:41.460Z,94631.58
2019-01-19T20:02:14.049Z,94633.53
2019-01-19T20:04:46.690Z,94628.33
2019-01-19T20:07:19.374Z,94633.13
2019-01-19T20:09:52.081Z,94623.80
2019-01-19T20:12:25.251Z,94621.98
2019-01-19T20:14:57.883Z,94619.76
2019-01-19T20:17:30.497Z,94621.56
2019-01-19T20:20:03.146Z,94632.86
2019-01-19T20:22:35.818Z,94627.87
2019-01-19T20:25:09.072Z,94633.86
2019-01-19T20:27:41.765Z,94630.92
2019-01-19T20:30:16.356Z,94629.55
2019-01-19T20:32:50.485Z,94627.53
2019-01-19T20:35:23.257Z,94633.77
2019-01-19T20:37:56.073Z,94635.00
2019-01-19T20:40:28.642Z,94623.90
2019-01-19T20:43:01.378Z,94628.28
2019-01-19T20:45:34.197Z,94625.43
2019-01-19T20:48:07.163Z,94622.49
2019-01-19T20:50:39.762Z,94624.22
2019-01-19T20:53:12.405Z,94621.61
2019-01-19T20:55:45.086Z,94627.49
2019-01-19T20:58:17.720Z,94628.18
2019-01-19T21:00:50.386Z,94626.80
2019-01-19T21:03:23.001Z,94631.17
2019-01-19T21:05:55.683Z,94626.30
2019-01-19T21:08:28.373Z,94632.80
2019-01-19T21:11:01.048Z,94628.16
2019-01-19T21:13:33.713Z,94630.69
2019-01-19T21:16:06.745Z,94632.91
2019-01-19T21:18:39.363Z,94630.23
2019-01-19T21:21:12.069Z,94631.34
2019-01-19T21:23:44.681Z,94629.77
2019-01-19T21:26:18.549Z,94629.39
2019-01-19T21:28:51.165Z,94622.72
2019-01-19T21:31:23.714Z,94623.30
2019-01-19T21:33:56.388Z,94613.02
2019-01-19T21:36:29.106Z,94620.98
2019-01-19T21:39:01.764Z,94616.27
2019-01-19T21:41:34.330Z,94614.37
2019-01-19T21:44:07.102Z,94618.95
2019-01-19T21:46:39.723Z,94620.32
2019-01-19T21:49:12.349Z,94613.56
2019-01-19T21:51:44.937Z,94617.62
2019-01-19T21:54:17.665Z,94614.56
2019-01-19T21:56:50.356Z,94614.82
2019-01-19T21:59:22.978Z,94619.05
2019-01-19T22:01:55.956Z,94608.17
2019-01-19T22:04:28.579Z,94611.45
2019-01-19T22:07:01.340Z,94616.23
2019-01-19T22:09:34.182Z,94617.34
2019-01-19T22:12:06.969Z,94621.54
2019-01-19T22:14:39.556Z,94628.65
2019-01-19T22:17:12.233Z,94626.10
2019-01-19T22:19:44.813Z,94627.06
2019-01-19T22:22:17.449Z,94624.59
2019-01-19T22:24:50.078Z,94622.41
2019-01-19T22:27:23.332Z,94627.94
2019-01-19T22:29:55.966Z,94629.08
2019-01-19T22:32:28.587Z,94635.20
2019-01-19T22:35:01.315Z,94634.50
2019-01-19T22:37:36.863Z,94637.77
2019-01-19T22:40:16.444Z,94631.83
2019-01-19T22:42:49.184Z,94632.90
2019-01-19T22:45:21.842Z,94637.00
2019-01-19T22:47:54.547Z,94625.39
2019-01-19T22:50:27.168Z,94630.96
2019-01-19T22:52:59.794Z,94632.67
2019-01-19T22:55:32.805Z,94629.69
2019-01-19T22:58:05.462Z,94627.63
2019-01-19T23:01:16.813Z,94627.12
2019-01-19T23:03:49.531Z,94627.73
2019-01-19T23:06:22.269Z,94619.66
2019-01-19T23:08:55.025Z,94624.16
2019-01-19T23:11:33.762Z,94631.80
2019-01-19T23:14:02.900Z,94622.10
2019-01-19T23:16:35.662Z,94623.27
2019-01-19T23:19:08.457Z,94624.92
2019-01-19T23:21:41.630Z,94619.66
2019-01-19T23:24:14.736Z,94623.16
2019-01-19T23:26:48.053Z,94616.48
2019-01-19T23:29:20.746Z,94615.59
2019-01-19T23:31:53.474Z,94607.73
2019-01-19T23:34:26.108Z,94619.68
2019-01-19T23:36:58.851Z,94610.02
2019-01-19T23:39:31.699Z,94615.23
2019-01-19T23:42:04.442Z,94613.54
2019-01-19T23:44:37.184Z,94610.80
2019-01-19T23:47:09.887Z,94606.72
2019-01-19T23:49:42.716Z,94605.47
2019-01-19T23:52:15.656Z,94605.83
2019-01-19T23:54:49.310Z,94612.20
2019-01-19T23:57:21.569Z,94603.98
2019-01-19T23:59:54.337Z,94600.55
